createdAt,value
2018-09-18T00:03:34.169Z,19.3
2018-09-18T00:09:09.036Z,19.3
2018-09-18T00:14:33.843Z,19.3
2018-09-18T00:20:08.592Z,19.3
2018-09-18T00:25:39.673Z,19.2
2018-09-18T00:31:05.486Z,19.2
2018-09-18T00:36:36.298Z,19.2
2018-09-18T00:42:05.940Z,19.2
2018-09-18T00:47:35.840Z,19.2
2018-09-18T00:53:06.691Z,19.2
2018-09-18T00:58:36.176Z,19.2
2018-09-18T01:04:12.559Z,19.2
2018-09-18T01:09:42.829Z,19.2
2018-09-18T01:15:08.908Z,19.2
2018-09-18T01:20:43.674Z,19.2
2018-09-18T01:26:09.177Z,19.2
2018-09-18T01:31:43.983Z,19.2
2018-09-18T01:37:13.797Z,19.2
2018-09-18T01:42:40.105Z,19.2
2018-09-18T01:48:09.362Z,19.2
2018-09-18T01:53:39.140Z,19.2
2018-09-18T01:59:13.982Z,19.2
2018-09-18T02:04:38.712Z,19.2
2018-09-18T02:10:08.476Z,19.2
2018-09-18T02:15:38.285Z,19.2
2018-09-18T02:21:14.097Z,19.2
2018-09-18T02:26:38.859Z,19.2
2018-09-18T02:32:09.649Z,19.1
2018-09-18T02:37:39.534Z,19.1
2018-09-18T02:43:15.237Z,19.1
2018-09-18T02:48:40.308Z,19.1
2018-09-18T02:54:11.346Z,19.1
2018-09-18T02:59:40.546Z,19.1
2018-09-18T03:05:15.369Z,19.1
2018-09-18T03:10:46.172Z,19.1
2018-09-18T03:16:10.913Z,19.1
2018-09-18T03:21:45.677Z,19.1
2018-09-18T03:27:10.494Z,19.1
2018-09-18T03:32:45.716Z,19.1
2018-09-18T03:38:11.003Z,19.1
2018-09-18T03:43:41.938Z,19.1
2018-09-18T03:49:12.560Z,19.1
2018-09-18T03:54:43.375Z,19.1
2018-09-18T04:00:13.122Z,19.1
2018-09-18T04:05:43.016Z,19.1
2018-09-18T04:11:13.690Z,19.1
2018-09-18T04:16:43.528Z,19.1
2018-09-18T04:22:18.549Z,19
2018-09-18T04:27:48.999Z,19
2018-09-18T04:33:13.893Z,19
2018-09-18T04:38:44.603Z,19
2018-09-18T04:44:16.012Z,19
2018-09-18T04:49:44.112Z,19
2018-09-18T04:55:15.223Z,19
2018-09-18T05:00:49.758Z,19
2018-09-18T05:06:15.406Z,19
2018-09-18T05:11:45.184Z,19
2018-09-18T05:17:20.981Z,19
2018-09-18T05:22:46.027Z,19
2018-09-18T05:28:21.895Z,19
2018-09-18T05:33:46.369Z,19
2018-09-18T05:39:16.301Z,19
2018-09-18T05:44:50.810Z,19
2018-09-18T05:50:17.000Z,19
2018-09-18T05:55:46.359Z,19
2018-09-18T06:01:17.107Z,19
2018-09-18T06:06:51.934Z,19
2018-09-18T06:12:16.671Z,19
2018-09-18T06:17:46.424Z,19
2018-09-18T06:23:22.384Z,19
2018-09-18T06:28:46.988Z,19
2018-09-18T06:34:22.674Z,19
2018-09-18T06:39:46.839Z,19
2018-09-18T06:45:17.566Z,19
2018-09-18T06:50:47.369Z,19
2018-09-18T06:56:21.884Z,19
2018-09-18T07:01:51.671Z,19
2018-09-18T07:07:16.677Z,18.9
2018-09-18T07:12:52.612Z,18.9
2018-09-18T07:18:17.941Z,18.9
2018-09-18T07:23:52.688Z,18.9
2018-09-18T07:29:22.871Z,18.9
2018-09-18T07:34:47.467Z,18.9
2018-09-18T07:40:17.206Z,18.9
2018-09-18T07:45:46.876Z,18.9
2018-09-18T07:51:22.320Z,18.9
2018-09-18T07:56:47.262Z,18.9
2018-09-18T08:02:17.756Z,18.9
2018-09-18T08:07:47.772Z,18.9
2018-09-18T08:13:17.514Z,18.9
2018-09-18T08:18:52.411Z,18.9
2018-09-18T08:24:17.064Z,18.9
2018-09-18T08:29:46.834Z,19
2018-09-18T08:35:22.884Z,19
2018-09-18T08:40:48.614Z,19
2018-09-18T08:46:18.399Z,19
2018-09-18T08:51:53.276Z,19
2018-09-18T08:57:17.952Z,19
2018-09-18T09:02:47.672Z,19
2018-09-18T09:08:18.383Z,19
2018-09-18T09:13:50.361Z,19
2018-09-18T09:19:18.907Z,19
2018-09-18T09:24:49.001Z,19
2018-09-18T09:30:18.843Z,19
2018-09-18T09:35:49.039Z,19
2018-09-18T09:41:23.841Z,19
2018-09-18T09:46:48.673Z,19
2018-09-18T09:52:24.374Z,19.1
2018-09-18T09:57:49.450Z,19.1
2018-09-18T10:03:20.286Z,19.1
2018-09-18T10:08:50.679Z,19.1
2018-09-18T10:14:21.725Z,19.1
2018-09-18T10:19:57.781Z,19.1
2018-09-18T10:30:54.233Z,19.1
2018-09-18T10:36:22.832Z,19.1
2018-09-18T10:41:52.568Z,19.1
2018-09-18T10:47:28.418Z,19.1
2018-09-18T10:52:53.923Z,19.1
2018-09-18T10:58:23.712Z,19.1
2018-09-18T11:03:54.483Z,19.1
2018-09-18T11:09:24.526Z,19.1
2018-09-18T11:14:55.109Z,19.1
2018-09-18T11:20:31.483Z,19.1
2018-09-18T11:25:56.648Z,19.2
2018-09-18T11:31:32.389Z,19.2
2018-09-18T11:36:57.525Z,19.2
2018-09-18T11:42:26.934Z,19.2
2018-09-18T11:48:03.019Z,19.2
2018-09-18T11:53:32.501Z,19.2
2018-09-18T11:58:57.301Z,19.2
2018-09-18T12:04:28.398Z,19.2
2018-09-18T12:09:58.925Z,19.2
2018-09-18T12:15:29.779Z,19.2
2018-09-18T12:21:05.279Z,19.3
2018-09-18T12:26:34.434Z,19.3
2018-09-18T12:32:05.209Z,19.3
2018-09-18T12:37:31.168Z,19.3
2018-09-18T12:43:06.830Z,19.3
2018-09-18T12:54:02.375Z,19.4
2018-09-18T12:59:33.635Z,19.4
2018-09-18T13:05:03.139Z,19.4
2018-09-18T13:10:32.663Z,19.4
2018-09-18T13:17:56.722Z,19.5
2018-09-18T13:21:35.245Z,19.5
2018-09-18T13:27:03.076Z,19.5
2018-09-18T13:32:33.569Z,19.6
2018-09-18T13:38:02.980Z,19.6
2018-09-18T13:43:33.730Z,19.6
2018-09-18T13:49:05.710Z,19.7
2018-09-18T13:54:41.702Z,19.7
2018-09-18T14:00:06.155Z,19.7
2018-09-18T14:05:36.952Z,19.7
2018-09-18T14:11:08.590Z,19.8
2018-09-18T14:16:45.507Z,19.8
2018-09-18T14:22:17.983Z,19.8
2018-09-18T14:33:10.230Z,19.9
2018-09-18T14:38:41.788Z,19.9
2018-09-18T14:44:16.130Z,19.9
2018-09-18T14:49:41.777Z,20
2018-09-18T14:55:12.087Z,20
2018-09-18T15:00:46.844Z,20
2018-09-18T15:06:17.362Z,20
2018-09-18T15:11:42.295Z,20.1
2018-09-18T15:17:13.125Z,20.1
2018-09-18T15:22:44.080Z,20.1
2018-09-18T15:28:13.892Z,20.1
2018-09-18T15:33:49.129Z,20.1
2018-09-18T15:39:18.693Z,20.1
2018-09-18T15:44:43.539Z,20.1
2018-09-18T15:50:14.679Z,20.2
2018-09-18T15:55:45.899Z,20.2
2018-09-18T16:01:16.282Z,20.2
2018-09-18T16:06:47.205Z,20.2
2018-09-18T16:12:17.131Z,20.2
2018-09-18T16:17:47.929Z,20.2
2018-09-18T16:23:18.829Z,20.2
2018-09-18T16:28:48.986Z,20.2
2018-09-18T16:34:18.572Z,20.2
2018-09-18T16:39:53.468Z,20.2
2018-09-18T16:45:23.379Z,20.2
2018-09-18T16:50:53.236Z,20.2
2018-09-18T16:56:19.194Z,20.2
2018-09-18T17:01:49.294Z,20.2
2018-09-18T17:07:24.076Z,20.2
2018-09-18T17:12:50.061Z,20.2
2018-09-18T17:18:19.995Z,20.2
2018-09-18T17:23:49.842Z,20.2
2018-09-18T17:29:26.088Z,20.2
2018-09-18T17:34:50.710Z,20.2
2018-09-18T17:45:56.474Z,20.2
2018-09-18T17:51:26.596Z,20.2
2018-09-18T17:56:52.295Z,20.2
2018-09-18T18:02:22.164Z,20.2
2018-09-18T18:07:52.478Z,20.2
2018-09-18T18:13:22.116Z,20.2
2018-09-18T18:18:53.636Z,20.2
2018-09-18T18:24:22.452Z,20.2
2018-09-18T18:29:53.332Z,20.2
2018-09-18T18:35:23.289Z,20.2
2018-09-18T18:40:53.190Z,20.1
2018-09-18T18:46:23.232Z,20.1
2018-09-18T18:51:53.846Z,20.1
2018-09-18T18:57:29.723Z,20.1
2018-09-18T19:02:55.645Z,20.1
2018-09-18T19:08:25.535Z,20.1
2018-09-18T19:13:56.690Z,20.1
2018-09-18T19:19:32.401Z,20.1
2018-09-18T19:24:58.412Z,20.1
2018-09-18T19:30:28.102Z,20.1
2018-09-18T19:35:58.047Z,20.1
2018-09-18T19:41:27.842Z,20.1
2018-09-18T19:47:02.695Z,20.1
2018-09-18T19:52:32.887Z,20.1
2018-09-18T19:58:03.491Z,20.1
2018-09-18T20:03:29.608Z,20.1
2018-09-18T20:08:59.231Z,20.1
2018-09-18T20:14:30.104Z,20.1
2018-09-18T20:20:04.996Z,20.1
2018-09-18T20:25:34.903Z,20.1
2018-09-18T20:31:04.762Z,20.1
2018-09-18T20:36:30.613Z,20.1
2018-09-18T20:42:01.597Z,20.1
2018-09-18T20:47:31.392Z,20.1
2018-09-18T20:53:01.590Z,20.1
2018-09-18T20:58:36.444Z,20.1
2018-09-18T21:04:01.320Z,20.1
2018-09-18T21:09:31.975Z,20.1
2018-09-18T21:15:02.173Z,20.1
2018-09-18T21:20:36.719Z,20.1
2018-09-18T21:26:06.600Z,20.1
2018-09-18T21:31:37.478Z,20.1
2018-09-18T21:37:03.357Z,20.1
2018-09-18T21:42:33.491Z,20.1
2018-09-18T21:48:08.179Z,20.1
2018-09-18T21:53:32.961Z,20.1
2018-09-18T21:59:04.140Z,20.1
2018-09-18T22:04:35.253Z,20.1
2018-09-18T22:10:10.880Z,20.1
2018-09-18T22:15:41.457Z,20.1
2018-09-18T22:21:07.596Z,20.1
2018-09-18T22:26:37.210Z,20.1
2018-09-18T22:32:13.098Z,20.1
2018-09-18T22:37:38.948Z,20
2018-09-18T22:43:14.010Z,20
2018-09-18T22:48:39.119Z,20
2018-09-18T22:54:09.637Z,20
2018-09-18T22:59:39.463Z,20
2018-09-18T23:05:10.329Z,20
2018-09-18T23:10:41.282Z,20
2018-09-18T23:16:11.048Z,20
2018-09-18T23:21:46.912Z,20
2018-09-18T23:27:11.755Z,20
2018-09-18T23:32:42.929Z,20
2018-09-18T23:38:12.725Z,20
2018-09-18T23:43:49.370Z,20
2018-09-18T23:49:13.402Z,20
2018-09-18T23:54:43.063Z,20
